sensor_id;sensor_type;location;lat;lon;timestamp;temperature;humidity
42755;DHT22;28407;51.830;5.684;2023-04-15T00:00:43;11.20;62.30
42755;DHT22;28407;51.830;5.684;2023-04-15T00:02:43;11.10;62.30
42755;DHT22;28407;51.830;5.684;2023-04-15T00:04:46;11.10;62.40
42755;DHT22;28407;51.830;5.684;2023-04-15T00:06:50;11.10;62.50
42755;DHT22;28407;51.830;5.684;2023-04-15T00:08:52;11.10;62.50
42755;DHT22;28407;51.830;5.684;2023-04-15T00:10:53;11.00;62.50
42755;DHT22;28407;51.830;5.684;2023-04-15T00:12:53;11.00;62.50
42755;DHT22;28407;51.830;5.684;2023-04-15T00:14:54;11.00;62.60
42755;DHT22;28407;51.830;5.684;2023-04-15T00:16:56;11.00;62.70
42755;DHT22;28407;51.830;5.684;2023-04-15T00:18:57;10.90;62.70
42755;DHT22;28407;51.830;5.684;2023-04-15T00:20:58;11.00;62.70
42755;DHT22;28407;51.830;5.684;2023-04-15T00:22:58;11.00;62.80
42755;DHT22;28407;51.830;5.684;2023-04-15T00:24:59;10.90;62.80
42755;DHT22;28407;51.830;5.684;2023-04-15T00:27:00;10.90;62.80
42755;DHT22;28407;51.830;5.684;2023-04-15T00:29:01;10.90;62.90
42755;DHT22;28407;51.830;5.684;2023-04-15T00:31:01;10.90;62.90
42755;DHT22;28407;51.830;5.684;2023-04-15T00:33:02;10.90;63.00
42755;DHT22;28407;51.830;5.684;2023-04-15T00:35:03;10.90;63.00
42755;DHT22;28407;51.830;5.684;2023-04-15T00:37:04;10.90;63.00
42755;DHT22;28407;51.830;5.684;2023-04-15T00:39:04;10.90;63.00
42755;DHT22;28407;51.830;5.684;2023-04-15T00:41:05;10.90;63.00
42755;DHT22;28407;51.830;5.684;2023-04-15T00:43:07;10.90;63.00
42755;DHT22;28407;51.830;5.684;2023-04-15T00:45:07;10.90;63.10
42755;DHT22;28407;51.830;5.684;2023-04-15T00:47:08;10.90;63.10
42755;DHT22;28407;51.830;5.684;2023-04-15T00:49:10;10.90;63.10
42755;DHT22;28407;51.830;5.684;2023-04-15T00:51:12;10.90;63.10
42755;DHT22;28407;51.830;5.684;2023-04-15T00:53:13;10.90;63.10
42755;DHT22;28407;51.830;5.684;2023-04-15T00:55:14;10.90;63.10
42755;DHT22;28407;51.830;5.684;2023-04-15T00:57:15;10.80;63.00
42755;DHT22;28407;51.830;5.684;2023-04-15T00:59:17;10.80;63.00
42755;DHT22;28407;51.830;5.684;2023-04-15T01:01:20;10.90;63.10
42755;DHT22;28407;51.830;5.684;2023-04-15T01:03:22;10.80;63.00
42755;DHT22;28407;51.830;5.684;2023-04-15T01:05:23;10.80;63.00
42755;DHT22;28407;51.830;5.684;2023-04-15T01:07:24;10.80;63.00
42755;DHT22;28407;51.830;5.684;2023-04-15T01:09:25;10.80;63.00
42755;DHT22;28407;51.830;5.684;2023-04-15T01:11:27;10.80;63.70
42755;DHT22;28407;51.830;5.684;2023-04-15T01:13:28;10.80;63.00
42755;DHT22;28407;51.830;5.684;2023-04-15T01:15:30;10.80;63.00
42755;DHT22;28407;51.830;5.684;2023-04-15T01:17:31;10.80;63.00
42755;DHT22;28407;51.830;5.684;2023-04-15T01:19:32;10.80;63.00
42755;DHT22;28407;51.830;5.684;2023-04-15T01:21:36;10.80;63.00
42755;DHT22;28407;51.830;5.684;2023-04-15T01:23:38;10.80;63.00
42755;DHT22;28407;51.830;5.684;2023-04-15T01:25:41;10.80;62.90
42755;DHT22;28407;51.830;5.684;2023-04-15T01:27:43;10.80;62.90
42755;DHT22;28407;51.830;5.684;2023-04-15T01:29:43;10.80;63.00
42755;DHT22;28407;51.830;5.684;2023-04-15T01:31:53;10.80;62.90
42755;DHT22;28407;51.830;5.684;2023-04-15T01:33:54;10.80;63.00
42755;DHT22;28407;51.830;5.684;2023-04-15T01:35:54;10.70;62.90
42755;DHT22;28407;51.830;5.684;2023-04-15T01:38:07;10.70;62.90
42755;DHT22;28407;51.830;5.684;2023-04-15T01:40:08;10.70;62.90
42755;DHT22;28407;51.830;5.684;2023-04-15T01:42:10;10.70;62.90
42755;DHT22;28407;51.830;5.684;2023-04-15T01:44:11;10.70;62.90
42755;DHT22;28407;51.830;5.684;2023-04-15T01:46:13;10.70;62.90
42755;DHT22;28407;51.830;5.684;2023-04-15T01:48:14;10.70;62.90
42755;DHT22;28407;51.830;5.684;2023-04-15T01:50:15;10.70;62.90
42755;DHT22;28407;51.830;5.684;2023-04-15T01:52:15;10.70;62.90
42755;DHT22;28407;51.830;5.684;2023-04-15T01:54:16;10.70;63.00
42755;DHT22;28407;51.830;5.684;2023-04-15T01:56:17;10.60;62.90
42755;DHT22;28407;51.830;5.684;2023-04-15T01:58:18;10.60;63.00
42755;DHT22;28407;51.830;5.684;2023-04-15T02:00:19;10.60;63.00
42755;DHT22;28407;51.830;5.684;2023-04-15T02:02:19;10.60;63.00
42755;DHT22;28407;51.830;5.684;2023-04-15T02:04:20;10.60;63.00
42755;DHT22;28407;51.830;5.684;2023-04-15T02:06:21;10.60;63.10
42755;DHT22;28407;51.830;5.684;2023-04-15T02:08:22;10.60;63.10
42755;DHT22;28407;51.830;5.684;2023-04-15T02:10:22;10.50;63.10
42755;DHT22;28407;51.830;5.684;2023-04-15T02:12:23;10.50;63.30
42755;DHT22;28407;51.830;5.684;2023-04-15T02:14:23;10.50;63.40
42755;DHT22;28407;51.830;5.684;2023-04-15T02:16:24;10.50;63.30
42755;DHT22;28407;51.830;5.684;2023-04-15T02:18:25;10.50;63.40
42755;DHT22;28407;51.830;5.684;2023-04-15T02:20:26;10.50;63.50
42755;DHT22;28407;51.830;5.684;2023-04-15T02:22:27;10.50;63.50
42755;DHT22;28407;51.830;5.684;2023-04-15T02:24:29;10.50;63.50
42755;DHT22;28407;51.830;5.684;2023-04-15T02:26:30;10.50;63.60
42755;DHT22;28407;51.830;5.684;2023-04-15T02:28:34;10.40;63.50
42755;DHT22;28407;51.830;5.684;2023-04-15T02:30:35;10.50;63.60
42755;DHT22;28407;51.830;5.684;2023-04-15T02:32:36;10.40;63.60
42755;DHT22;28407;51.830;5.684;2023-04-15T02:34:40;10.40;63.60
42755;DHT22;28407;51.830;5.684;2023-04-15T02:36:43;10.40;63.60
42755;DHT22;28407;51.830;5.684;2023-04-15T02:38:43;10.40;63.70
42755;DHT22;28407;51.830;5.684;2023-04-15T02:40:44;10.40;63.70
42755;DHT22;28407;51.830;5.684;2023-04-15T02:42:45;10.50;63.80
42755;DHT22;28407;51.830;5.684;2023-04-15T02:44:48;10.40;63.80
42755;DHT22;28407;51.830;5.684;2023-04-15T02:46:49;10.40;63.80
42755;DHT22;28407;51.830;5.684;2023-04-15T02:48:51;10.40;63.90
42755;DHT22;28407;51.830;5.684;2023-04-15T02:51:09;10.40;63.90
42755;DHT22;28407;51.830;5.684;2023-04-15T02:53:10;10.40;64.00
42755;DHT22;28407;51.830;5.684;2023-04-15T02:55:10;10.40;64.00
42755;DHT22;28407;51.830;5.684;2023-04-15T02:57:12;10.40;64.10
42755;DHT22;28407;51.830;5.684;2023-04-15T02:59:12;10.40;64.10
42755;DHT22;28407;51.830;5.684;2023-04-15T03:01:13;10.30;64.20
42755;DHT22;28407;51.830;5.684;2023-04-15T03:03:15;10.30;64.30
42755;DHT22;28407;51.830;5.684;2023-04-15T03:05:15;10.20;64.40
42755;DHT22;28407;51.830;5.684;2023-04-15T03:07:22;10.20;64.50
42755;DHT22;28407;51.830;5.684;2023-04-15T03:09:23;10.20;64.60
42755;DHT22;28407;51.830;5.684;2023-04-15T03:11:23;10.10;64.60
42755;DHT22;28407;51.830;5.684;2023-04-15T03:13:24;10.10;64.80
42755;DHT22;28407;51.830;5.684;2023-04-15T03:15:25;10.10;64.90
42755;DHT22;28407;51.830;5.684;2023-04-15T03:17:27;10.10;65.00
42755;DHT22;28407;51.830;5.684;2023-04-15T03:19:28;10.10;65.00
42755;DHT22;28407;51.830;5.684;2023-04-15T03:21:28;10.10;65.10
42755;DHT22;28407;51.830;5.684;2023-04-15T03:23:30;10.10;65.10
42755;DHT22;28407;51.830;5.684;2023-04-15T03:25:31;10.10;65.10
42755;DHT22;28407;51.830;5.684;2023-04-15T03:27:33;10.10;65.10
42755;DHT22;28407;51.830;5.684;2023-04-15T03:29:36;10.10;65.10
42755;DHT22;28407;51.830;5.684;2023-04-15T03:31:37;10.10;65.10
42755;DHT22;28407;51.830;5.684;2023-04-15T03:33:38;10.00;65.00
42755;DHT22;28407;51.830;5.684;2023-04-15T03:35:39;10.00;65.20
42755;DHT22;28407;51.830;5.684;2023-04-15T03:37:40;10.00;65.20
42755;DHT22;28407;51.830;5.684;2023-04-15T03:39:41;10.00;65.30
42755;DHT22;28407;51.830;5.684;2023-04-15T03:41:41;10.00;65.40
42755;DHT22;28407;51.830;5.684;2023-04-15T03:43:42;10.00;65.50
42755;DHT22;28407;51.830;5.684;2023-04-15T03:45:43;10.00;65.50
42755;DHT22;28407;51.830;5.684;2023-04-15T03:47:43;10.00;65.50
42755;DHT22;28407;51.830;5.684;2023-04-15T03:49:44;9.90;65.60
42755;DHT22;28407;51.830;5.684;2023-04-15T03:51:45;9.90;65.70
42755;DHT22;28407;51.830;5.684;2023-04-15T03:53:46;9.90;65.70
42755;DHT22;28407;51.830;5.684;2023-04-15T03:55:46;9.90;65.80
42755;DHT22;28407;51.830;5.684;2023-04-15T03:57:47;9.90;65.90
42755;DHT22;28407;51.830;5.684;2023-04-15T03:59:47;9.90;65.90
42755;DHT22;28407;51.830;5.684;2023-04-15T04:01:49;9.90;66.00
42755;DHT22;28407;51.830;5.684;2023-04-15T04:03:50;9.90;66.00
42755;DHT22;28407;51.830;5.684;2023-04-15T04:05:50;9.80;66.10
42755;DHT22;28407;51.830;5.684;2023-04-15T04:07:51;9.90;66.90
42755;DHT22;28407;51.830;5.684;2023-04-15T04:09:52;9.80;66.30
42755;DHT22;28407;51.830;5.684;2023-04-15T04:11:52;9.80;66.50
42755;DHT22;28407;51.830;5.684;2023-04-15T04:13:53;9.80;66.50
42755;DHT22;28407;51.830;5.684;2023-04-15T04:15:53;9.80;66.60
42755;DHT22;28407;51.830;5.684;2023-04-15T04:17:54;9.80;66.60
42755;DHT22;28407;51.830;5.684;2023-04-15T04:19:55;9.80;66.60
42755;DHT22;28407;51.830;5.684;2023-04-15T04:21:56;9.80;66.60
42755;DHT22;28407;51.830;5.684;2023-04-15T04:23:56;9.80;66.70
42755;DHT22;28407;51.830;5.684;2023-04-15T04:25:58;9.80;66.70
42755;DHT22;28407;51.830;5.684;2023-04-15T04:27:58;9.80;66.80
42755;DHT22;28407;51.830;5.684;2023-04-15T04:29:59;9.80;66.80
42755;DHT22;28407;51.830;5.684;2023-04-15T04:32:00;9.80;67.00
42755;DHT22;28407;51.830;5.684;2023-04-15T04:34:01;9.70;67.10
42755;DHT22;28407;51.830;5.684;2023-04-15T04:36:02;9.70;67.20
42755;DHT22;28407;51.830;5.684;2023-04-15T04:38:03;9.60;67.20
42755;DHT22;28407;51.830;5.684;2023-04-15T04:40:04;9.60;67.30
42755;DHT22;28407;51.830;5.684;2023-04-15T04:42:05;9.60;67.30
42755;DHT22;28407;51.830;5.684;2023-04-15T04:44:05;9.60;67.40
42755;DHT22;28407;51.830;5.684;2023-04-15T04:46:06;9.60;67.40
42755;DHT22;28407;51.830;5.684;2023-04-15T04:48:07;9.60;67.50
42755;DHT22;28407;51.830;5.684;2023-04-15T04:50:08;9.60;67.50
42755;DHT22;28407;51.830;5.684;2023-04-15T04:52:09;9.60;67.60
42755;DHT22;28407;51.830;5.684;2023-04-15T04:54:10;9.60;67.50
42755;DHT22;28407;51.830;5.684;2023-04-15T04:56:11;9.70;67.50
42755;DHT22;28407;51.830;5.684;2023-04-15T04:58:11;9.70;67.50
42755;DHT22;28407;51.830;5.684;2023-04-15T05:00:12;9.70;67.50
42755;DHT22;28407;51.830;5.684;2023-04-15T05:02:13;9.70;67.50
42755;DHT22;28407;51.830;5.684;2023-04-15T05:04:14;9.70;67.50
42755;DHT22;28407;51.830;5.684;2023-04-15T05:06:14;9.70;67.60
42755;DHT22;28407;51.830;5.684;2023-04-15T05:08:15;9.70;67.60
42755;DHT22;28407;51.830;5.684;2023-04-15T05:10:16;9.70;67.60
42755;DHT22;28407;51.830;5.684;2023-04-15T05:12:17;9.70;67.70
42755;DHT22;28407;51.830;5.684;2023-04-15T05:14:18;9.60;67.70
42755;DHT22;28407;51.830;5.684;2023-04-15T05:16:18;9.60;67.80
42755;DHT22;28407;51.830;5.684;2023-04-15T05:18:19;9.60;67.90
42755;DHT22;28407;51.830;5.684;2023-04-15T05:20:20;9.60;67.90
42755;DHT22;28407;51.830;5.684;2023-04-15T05:22:21;9.70;68.00
42755;DHT22;28407;51.830;5.684;2023-04-15T05:24:22;9.70;68.00
42755;DHT22;28407;51.830;5.684;2023-04-15T05:26:22;9.70;68.00
42755;DHT22;28407;51.830;5.684;2023-04-15T05:28:23;9.70;68.00
42755;DHT22;28407;51.830;5.684;2023-04-15T05:30:24;9.70;68.00
42755;DHT22;28407;51.830;5.684;2023-04-15T05:32:24;9.70;68.00
42755;DHT22;28407;51.830;5.684;2023-04-15T05:34:25;9.70;68.10
42755;DHT22;28407;51.830;5.684;2023-04-15T05:36:26;9.70;68.10
42755;DHT22;28407;51.830;5.684;2023-04-15T05:38:27;9.70;68.20
42755;DHT22;28407;51.830;5.684;2023-04-15T05:40:29;9.70;68.30
42755;DHT22;28407;51.830;5.684;2023-04-15T05:42:30;9.70;68.50
42755;DHT22;28407;51.830;5.684;2023-04-15T05:44:31;9.60;68.50
42755;DHT22;28407;51.830;5.684;2023-04-15T05:46:32;9.60;68.60
42755;DHT22;28407;51.830;5.684;2023-04-15T05:48:32;9.60;68.60
42755;DHT22;28407;51.830;5.684;2023-04-15T05:50:33;9.60;68.50
42755;DHT22;28407;51.830;5.684;2023-04-15T05:52:34;9.70;68.60
42755;DHT22;28407;51.830;5.684;2023-04-15T05:54:34;9.70;68.60
42755;DHT22;28407;51.830;5.684;2023-04-15T05:56:35;9.70;68.70
42755;DHT22;28407;51.830;5.684;2023-04-15T05:58:36;9.70;68.70
42755;DHT22;28407;51.830;5.684;2023-04-15T06:00:37;9.70;68.70
42755;DHT22;28407;51.830;5.684;2023-04-15T06:02:38;9.70;68.70
42755;DHT22;28407;51.830;5.684;2023-04-15T06:04:39;9.70;69.40
42755;DHT22;28407;51.830;5.684;2023-04-15T06:06:39;9.80;68.80
42755;DHT22;28407;51.830;5.684;2023-04-15T06:08:40;9.80;68.80
42755;DHT22;28407;51.830;5.684;2023-04-15T06:10:41;9.90;68.80
42755;DHT22;28407;51.830;5.684;2023-04-15T06:12:41;9.90;68.70
42755;DHT22;28407;51.830;5.684;2023-04-15T06:14:42;9.90;68.70
42755;DHT22;28407;51.830;5.684;2023-04-15T06:16:43;9.90;68.70
42755;DHT22;28407;51.830;5.684;2023-04-15T06:18:43;10.00;68.80
42755;DHT22;28407;51.830;5.684;2023-04-15T06:20:44;9.90;69.40
42755;DHT22;28407;51.830;5.684;2023-04-15T06:22:45;10.00;68.80
42755;DHT22;28407;51.830;5.684;2023-04-15T06:24:45;10.00;68.80
42755;DHT22;28407;51.830;5.684;2023-04-15T06:26:46;10.00;68.80
42755;DHT22;28407;51.830;5.684;2023-04-15T06:28:47;10.10;68.90
42755;DHT22;28407;51.830;5.684;2023-04-15T06:30:52;10.10;68.90
42755;DHT22;28407;51.830;5.684;2023-04-15T06:32:54;10.10;68.90
42755;DHT22;28407;51.830;5.684;2023-04-15T06:34:55;10.10;68.90
42755;DHT22;28407;51.830;5.684;2023-04-15T06:36:56;10.10;69.00
42755;DHT22;28407;51.830;5.684;2023-04-15T06:38:56;10.20;69.00
42755;DHT22;28407;51.830;5.684;2023-04-15T06:40:57;10.20;69.00
42755;DHT22;28407;51.830;5.684;2023-04-15T06:42:58;10.20;69.10
42755;DHT22;28407;51.830;5.684;2023-04-15T06:44:58;10.30;69.20
42755;DHT22;28407;51.830;5.684;2023-04-15T06:46:59;10.30;69.20
42755;DHT22;28407;51.830;5.684;2023-04-15T06:48:59;10.30;69.30
42755;DHT22;28407;51.830;5.684;2023-04-15T06:51:00;10.30;69.40
42755;DHT22;28407;51.830;5.684;2023-04-15T06:53:01;10.30;69.40
42755;DHT22;28407;51.830;5.684;2023-04-15T06:55:02;10.30;69.40
42755;DHT22;28407;51.830;5.684;2023-04-15T06:57:03;10.40;69.50
42755;DHT22;28407;51.830;5.684;2023-04-15T06:59:03;10.40;69.50
42755;DHT22;28407;51.830;5.684;2023-04-15T07:01:04;10.40;69.50
42755;DHT22;28407;51.830;5.684;2023-04-15T07:03:05;10.50;69.50
42755;DHT22;28407;51.830;5.684;2023-04-15T07:05:09;10.50;69.60
42755;DHT22;28407;51.830;5.684;2023-04-15T07:07:10;10.60;69.70
42755;DHT22;28407;51.830;5.684;2023-04-15T07:09:10;10.60;69.80
42755;DHT22;28407;51.830;5.684;2023-04-15T07:11:11;10.60;69.80
42755;DHT22;28407;51.830;5.684;2023-04-15T07:13:12;10.60;69.80
42755;DHT22;28407;51.830;5.684;2023-04-15T07:15:13;10.60;69.90
42755;DHT22;28407;51.830;5.684;2023-04-15T07:17:13;10.60;70.00
42755;DHT22;28407;51.830;5.684;2023-04-15T07:19:14;10.60;70.00
42755;DHT22;28407;51.830;5.684;2023-04-15T07:21:15;10.60;70.10
42755;DHT22;28407;51.830;5.684;2023-04-15T07:23:15;10.70;70.30
42755;DHT22;28407;51.830;5.684;2023-04-15T07:25:16;10.70;70.50
42755;DHT22;28407;51.830;5.684;2023-04-15T07:27:17;10.60;70.50
42755;DHT22;28407;51.830;5.684;2023-04-15T07:29:17;10.70;70.60
42755;DHT22;28407;51.830;5.684;2023-04-15T07:31:18;10.60;70.50
42755;DHT22;28407;51.830;5.684;2023-04-15T07:33:18;10.70;70.60
42755;DHT22;28407;51.830;5.684;2023-04-15T07:35:19;10.70;70.50
42755;DHT22;28407;51.830;5.684;2023-04-15T07:37:20;10.70;70.50
42755;DHT22;28407;51.830;5.684;2023-04-15T07:39:21;10.70;70.40
42755;DHT22;28407;51.830;5.684;2023-04-15T07:41:22;10.70;70.40
42755;DHT22;28407;51.830;5.684;2023-04-15T07:43:23;10.70;70.30
42755;DHT22;28407;51.830;5.684;2023-04-15T07:45:24;10.70;71.00
42755;DHT22;28407;51.830;5.684;2023-04-15T07:47:24;10.80;70.30
42755;DHT22;28407;51.830;5.684;2023-04-15T07:49:25;10.80;70.30
42755;DHT22;28407;51.830;5.684;2023-04-15T07:51:26;10.90;70.20
42755;DHT22;28407;51.830;5.684;2023-04-15T07:53:28;10.90;70.20
42755;DHT22;28407;51.830;5.684;2023-04-15T07:55:29;10.90;70.10
42755;DHT22;28407;51.830;5.684;2023-04-15T07:57:30;10.90;69.90
42755;DHT22;28407;51.830;5.684;2023-04-15T07:59:31;10.90;69.90
42755;DHT22;28407;51.830;5.684;2023-04-15T08:01:32;10.90;69.90
42755;DHT22;28407;51.830;5.684;2023-04-15T08:03:33;10.90;69.80
42755;DHT22;28407;51.830;5.684;2023-04-15T08:05:34;11.00;69.90
42755;DHT22;28407;51.830;5.684;2023-04-15T08:07:38;11.00;69.80
42755;DHT22;28407;51.830;5.684;2023-04-15T08:09:39;11.00;69.70
42755;DHT22;28407;51.830;5.684;2023-04-15T08:11:39;11.00;69.60
42755;DHT22;28407;51.830;5.684;2023-04-15T08:13:40;11.00;69.50
42755;DHT22;28407;51.830;5.684;2023-04-15T08:15:41;11.00;69.50
42755;DHT22;28407;51.830;5.684;2023-04-15T08:17:41;11.00;69.50
42755;DHT22;28407;51.830;5.684;2023-04-15T08:19:42;11.00;69.50
42755;DHT22;28407;51.830;5.684;2023-04-15T08:21:43;11.00;69.40
42755;DHT22;28407;51.830;5.684;2023-04-15T08:23:45;11.00;69.30
42755;DHT22;28407;51.830;5.684;2023-04-15T08:25:46;11.00;69.30
42755;DHT22;28407;51.830;5.684;2023-04-15T08:27:46;11.00;69.20
42755;DHT22;28407;51.830;5.684;2023-04-15T08:29:47;11.00;69.20
42755;DHT22;28407;51.830;5.684;2023-04-15T08:31:48;11.00;69.20
42755;DHT22;28407;51.830;5.684;2023-04-15T08:33:48;11.00;69.20
42755;DHT22;28407;51.830;5.684;2023-04-15T08:35:51;11.00;69.20
42755;DHT22;28407;51.830;5.684;2023-04-15T08:37:52;11.10;69.20
42755;DHT22;28407;51.830;5.684;2023-04-15T08:39:52;11.10;69.10
42755;DHT22;28407;51.830;5.684;2023-04-15T08:42:00;11.10;69.00
42755;DHT22;28407;51.830;5.684;2023-04-15T08:44:03;11.10;68.90
42755;DHT22;28407;51.830;5.684;2023-04-15T08:46:05;11.20;68.90
42755;DHT22;28407;51.830;5.684;2023-04-15T08:48:06;11.20;68.90
42755;DHT22;28407;51.830;5.684;2023-04-15T08:50:09;11.20;68.80
42755;DHT22;28407;51.830;5.684;2023-04-15T08:52:11;11.30;68.70
42755;DHT22;28407;51.830;5.684;2023-04-15T08:54:12;11.30;68.70
42755;DHT22;28407;51.830;5.684;2023-04-15T08:56:13;11.30;68.60
42755;DHT22;28407;51.830;5.684;2023-04-15T08:58:15;11.40;68.50
42755;DHT22;28407;51.830;5.684;2023-04-15T09:00:16;11.40;68.50
42755;DHT22;28407;51.830;5.684;2023-04-15T09:02:17;11.40;68.30
42755;DHT22;28407;51.830;5.684;2023-04-15T09:04:18;11.50;68.40
42755;DHT22;28407;51.830;5.684;2023-04-15T09:06:20;11.50;68.30
42755;DHT22;28407;51.830;5.684;2023-04-15T09:08:20;11.60;68.20
42755;DHT22;28407;51.830;5.684;2023-04-15T09:10:21;11.60;68.20
42755;DHT22;28407;51.830;5.684;2023-04-15T09:12:22;11.60;68.20
42755;DHT22;28407;51.830;5.684;2023-04-15T09:14:23;11.70;68.10
42755;DHT22;28407;51.830;5.684;2023-04-15T09:16:23;11.70;68.00
42755;DHT22;28407;51.830;5.684;2023-04-15T09:18:32;11.70;67.90
42755;DHT22;28407;51.830;5.684;2023-04-15T09:20:39;11.70;67.70
42755;DHT22;28407;51.830;5.684;2023-04-15T09:22:43;11.80;67.60
42755;DHT22;28407;51.830;5.684;2023-04-15T09:24:44;11.80;67.50
42755;DHT22;28407;51.830;5.684;2023-04-15T09:26:44;11.80;67.50
42755;DHT22;28407;51.830;5.684;2023-04-15T09:28:45;11.90;67.40
42755;DHT22;28407;51.830;5.684;2023-04-15T09:30:46;11.90;67.30
42755;DHT22;28407;51.830;5.684;2023-04-15T09:32:52;11.90;67.20
42755;DHT22;28407;51.830;5.684;2023-04-15T09:34:52;12.00;67.10
42755;DHT22;28407;51.830;5.684;2023-04-15T09:36:54;12.00;67.00
42755;DHT22;28407;51.830;5.684;2023-04-15T09:38:57;12.00;67.50
42755;DHT22;28407;51.830;5.684;2023-04-15T09:40:58;12.00;66.60
42755;DHT22;28407;51.830;5.684;2023-04-15T09:43:00;12.10;66.50
42755;DHT22;28407;51.830;5.684;2023-04-15T09:45:08;12.10;66.30
42755;DHT22;28407;51.830;5.684;2023-04-15T09:47:26;12.20;66.30
42755;DHT22;28407;51.830;5.684;2023-04-15T09:49:27;12.20;66.30
42755;DHT22;28407;51.830;5.684;2023-04-15T09:51:34;12.30;66.10
42755;DHT22;28407;51.830;5.684;2023-04-15T09:53:36;12.30;65.90
42755;DHT22;28407;51.830;5.684;2023-04-15T09:55:37;12.40;65.80
42755;DHT22;28407;51.830;5.684;2023-04-15T09:57:39;12.40;65.60
42755;DHT22;28407;51.830;5.684;2023-04-15T09:59:47;12.50;65.50
42755;DHT22;28407;51.830;5.684;2023-04-15T10:01:47;12.50;65.30
42755;DHT22;28407;51.830;5.684;2023-04-15T10:03:49;12.60;65.20
42755;DHT22;28407;51.830;5.684;2023-04-15T10:05:51;12.70;65.20
42755;DHT22;28407;51.830;5.684;2023-04-15T10:07:52;12.70;65.00
42755;DHT22;28407;51.830;5.684;2023-04-15T10:09:54;12.80;65.00
42755;DHT22;28407;51.830;5.684;2023-04-15T10:11:55;12.80;64.80
42755;DHT22;28407;51.830;5.684;2023-04-15T10:13:56;12.90;64.70
42755;DHT22;28407;51.830;5.684;2023-04-15T10:15:59;12.90;64.40
42755;DHT22;28407;51.830;5.684;2023-04-15T10:18:00;13.00;64.30
42755;DHT22;28407;51.830;5.684;2023-04-15T10:20:02;13.00;64.20
42755;DHT22;28407;51.830;5.684;2023-04-15T10:22:04;13.10;64.00
42755;DHT22;28407;51.830;5.684;2023-04-15T10:24:06;13.20;63.90
42755;DHT22;28407;51.830;5.684;2023-04-15T10:26:06;13.20;63.80
42755;DHT22;28407;51.830;5.684;2023-04-15T10:28:07;13.30;63.80
42755;DHT22;28407;51.830;5.684;2023-04-15T10:30:09;13.30;63.60
42755;DHT22;28407;51.830;5.684;2023-04-15T10:32:11;13.40;63.50
42755;DHT22;28407;51.830;5.684;2023-04-15T10:34:12;13.40;63.40
42755;DHT22;28407;51.830;5.684;2023-04-15T10:36:13;13.50;63.40
42755;DHT22;28407;51.830;5.684;2023-04-15T10:38:40;13.50;63.40
42755;DHT22;28407;51.830;5.684;2023-04-15T10:40:43;13.50;63.30
42755;DHT22;28407;51.830;5.684;2023-04-15T10:42:45;13.60;63.20
42755;DHT22;28407;51.830;5.684;2023-04-15T10:44:50;13.60;62.90
42755;DHT22;28407;51.830;5.684;2023-04-15T10:46:51;13.70;62.90
42755;DHT22;28407;51.830;5.684;2023-04-15T10:48:52;13.70;62.80
42755;DHT22;28407;51.830;5.684;2023-04-15T10:50:56;13.80;62.80
42755;DHT22;28407;51.830;5.684;2023-04-15T10:52:57;13.80;62.60
42755;DHT22;28407;51.830;5.684;2023-04-15T10:57:13;14.00;62.50
42755;DHT22;28407;51.830;5.684;2023-04-15T10:59:15;14.00;63.00
42755;DHT22;28407;51.830;5.684;2023-04-15T11:01:16;14.00;62.40
42755;DHT22;28407;51.830;5.684;2023-04-15T11:03:38;14.10;62.40
42755;DHT22;28407;51.830;5.684;2023-04-15T11:05:48;14.10;62.10
42755;DHT22;28407;51.830;5.684;2023-04-15T11:07:52;14.10;62.10
42755;DHT22;28407;51.830;5.684;2023-04-15T11:09:53;14.20;62.00
42755;DHT22;28407;51.830;5.684;2023-04-15T11:12:06;14.20;61.90
42755;DHT22;28407;51.830;5.684;2023-04-15T11:14:14;14.20;61.80
42755;DHT22;28407;51.830;5.684;2023-04-15T11:16:15;14.30;61.70
42755;DHT22;28407;51.830;5.684;2023-04-15T11:18:27;14.40;61.60
42755;DHT22;28407;51.830;5.684;2023-04-15T11:20:31;14.50;61.50
42755;DHT22;28407;51.830;5.684;2023-04-15T11:22:31;14.50;61.40
42755;DHT22;28407;51.830;5.684;2023-04-15T11:24:32;14.60;61.20
42755;DHT22;28407;51.830;5.684;2023-04-15T11:26:33;14.70;61.10
42755;DHT22;28407;51.830;5.684;2023-04-15T11:28:34;14.70;61.00
42755;DHT22;28407;51.830;5.684;2023-04-15T11:30:36;14.80;60.90
42755;DHT22;28407;51.830;5.684;2023-04-15T11:32:41;14.90;60.90
42755;DHT22;28407;51.830;5.684;2023-04-15T11:34:44;14.90;60.80
42755;DHT22;28407;51.830;5.684;2023-04-15T11:36:45;14.90;60.80
42755;DHT22;28407;51.830;5.684;2023-04-15T11:38:46;14.90;60.80
42755;DHT22;28407;51.830;5.684;2023-04-15T11:40:47;14.90;60.70
42755;DHT22;28407;51.830;5.684;2023-04-15T11:45:08;15.00;60.60
42755;DHT22;28407;51.830;5.684;2023-04-15T11:47:25;15.10;60.60
42755;DHT22;28407;51.830;5.684;2023-04-15T11:49:29;15.20;60.20
42755;DHT22;28407;51.830;5.684;2023-04-15T11:51:34;15.10;60.00
42755;DHT22;28407;51.830;5.684;2023-04-15T11:53:43;15.20;60.00
42755;DHT22;28407;51.830;5.684;2023-04-15T11:55:49;15.20;59.90
42755;DHT22;28407;51.830;5.684;2023-04-15T11:58:13;15.40;59.80
42755;DHT22;28407;51.830;5.684;2023-04-15T12:00:14;15.50;59.60
42755;DHT22;28407;51.830;5.684;2023-04-15T12:02:17;15.60;59.50
42755;DHT22;28407;51.830;5.684;2023-04-15T12:04:18;15.70;59.30
42755;DHT22;28407;51.830;5.684;2023-04-15T12:06:24;15.70;59.20
42755;DHT22;28407;51.830;5.684;2023-04-15T12:08:47;15.80;59.10
42755;DHT22;28407;51.830;5.684;2023-04-15T12:10:48;15.90;58.80
42755;DHT22;28407;51.830;5.684;2023-04-15T12:12:49;16.00;58.80
42755;DHT22;28407;51.830;5.684;2023-04-15T12:14:50;16.10;58.60
42755;DHT22;28407;51.830;5.684;2023-04-15T12:17:03;16.30;58.40
42755;DHT22;28407;51.830;5.684;2023-04-15T12:19:06;16.30;58.10
42755;DHT22;28407;51.830;5.684;2023-04-15T12:21:09;16.40;57.90
42755;DHT22;28407;51.830;5.684;2023-04-15T12:23:10;16.50;58.30
42755;DHT22;28407;51.830;5.684;2023-04-15T12:25:10;16.60;57.50
42755;DHT22;28407;51.830;5.684;2023-04-15T12:27:12;16.50;57.40
42755;DHT22;28407;51.830;5.684;2023-04-15T12:29:14;16.50;57.50
42755;DHT22;28407;51.830;5.684;2023-04-15T12:31:15;16.60;57.40
42755;DHT22;28407;51.830;5.684;2023-04-15T12:33:16;16.70;57.30
42755;DHT22;28407;51.830;5.684;2023-04-15T12:35:17;16.70;57.20
42755;DHT22;28407;51.830;5.684;2023-04-15T12:37:19;16.80;57.20
42755;DHT22;28407;51.830;5.684;2023-04-15T12:39:24;16.80;57.00
42755;DHT22;28407;51.830;5.684;2023-04-15T12:41:25;16.80;56.90
42755;DHT22;28407;51.830;5.684;2023-04-15T12:43:26;16.80;57.00
42755;DHT22;28407;51.830;5.684;2023-04-15T12:45:27;16.90;56.90
42755;DHT22;28407;51.830;5.684;2023-04-15T12:47:27;16.90;56.70
42755;DHT22;28407;51.830;5.684;2023-04-15T12:49:30;17.00;56.60
42755;DHT22;28407;51.830;5.684;2023-04-15T12:51:31;17.00;56.50
42755;DHT22;28407;51.830;5.684;2023-04-15T12:53:32;17.00;56.30
42755;DHT22;28407;51.830;5.684;2023-04-15T12:55:33;17.00;56.20
42755;DHT22;28407;51.830;5.684;2023-04-15T12:57:33;16.90;56.30